EGHE/ISC METAR and TAF weather

Enter ICAO airport designator
Station Type Date Time Source
EGHE METAR 2019/06/26 16:50 UTC NOAA

EGHE 261650Z 04019KT 6000 FEW015 18/16 Q1021


Station Type Date Time Source
EGHE Decoded METAR 2019/06/26 16:50 UTC NOAA

Scilly, Saint Mary'S, United Kingdom (EGHE) 49-55N 006-18W 0M
Jun 26, 2019 - 12:50 PM EDT / 2019.06.26 1650 UTC
Wind: from the NE (040 degrees) at 22 MPH (19 KT):0
Visibility: 3 mile(s):0
Sky conditions: mostly clear
Temperature: 64 F (18 C)
Dew Point: 60 F (16 C)
Relative Humidity: 88%
Pressure (altimeter): 30.15 in. Hg (1021 hPa)
ob: EGHE 261650Z 04019KT 6000 FEW015 18/16 Q1021
cycle: 17

Station Type Date Time Source
EGHE TAF UTC NOAA

Error!

Example: see airport list